Time;durP1;ratioP1;P1;durP2;ratioP2;P2;SDS_P1;SDS_P2;PMS_P1;PMS_P2;Temp;Humidity;BMP_temperature;BMP_pressure;BME280_temperature;BME280_humidity;BME280_pressure;Samples;Min_cycle;Max_cycle;Signal;HPM_P1;HPM_P2
2023/09/20 05:59:41;;;;;;;;;;;;;;;;;;10569917;22;20041;-84
2023/09/20 06:05:11;;;;;;;4.88;1.77;;;;;;;;;;10500987;28;20318;-84
2023/09/20 06:15:33;;;;;;;4.72;1.60;;;;;;;;;;10502465;28;19909;-84
2023/09/20 06:20:36;;;;;;;2.95;1.55;;;;;;;;;;10486122;28;20031;-85
2023/09/20 06:25:37;;;;;;;4.25;1.70;;;;;;;;;;10501169;28;20362;-85
2023/09/20 06:30:41;;;;;;;5.32;2.20;;;;;;;;;;10502229;28;20021;-84
2023/09/20 06:35:43;;;;;;;3.92;1.80;;;;;;;;;;10501304;28;20116;-84
2023/09/20 06:40:51;;;;;;;4.03;1.83;;;;;;;;;;10500771;28;20021;-84
2023/09/20 06:45:52;;;;;;;4.00;2.20;;;;;;;;;;10504933;28;20031;-85
2023/09/20 06:50:53;;;;;;;3.83;1.63;;;;;;;;;;10505945;28;20042;-85
2023/09/20 06:55:59;;;;;;;3.47;1.80;;;;;;;;;;10494339;28;20025;-85
2023/09/20 07:01:03;;;;;;;2.72;1.58;;;;;;;;;;10475220;28;20096;-86
2023/09/20 07:06:05;;;;;;;4.50;1.88;;;;;;;;;;10485706;28;20051;-85
2023/09/20 07:11:07;;;;;;;2.63;1.45;;;;;;;;;;10474603;28;20028;-85
2023/09/20 07:16:08;;;;;;;3.83;1.52;;;;;;;;;;10475678;28;20447;-83
2023/09/20 07:21:11;;;;;;;4.28;1.80;;;;;;;;;;10475163;28;20020;-81
2023/09/20 07:26:12;;;;;;;3.90;1.70;;;;;;;;;;10474244;28;20491;-83
2023/09/20 07:31:19;;;;;;;5.00;1.88;;;;;;;;;;10473868;28;20025;-82
2023/09/20 07:36:20;;;;;;;4.13;1.83;;;;;;;;;;10472015;28;20092;-82
2023/09/20 07:41:21;;;;;;;5.13;1.70;;;;;;;;;;10469604;28;20033;-82
2023/09/20 07:46:23;;;;;;;4.47;1.90;;;;;;;;;;10471034;28;20108;-82
2023/09/20 07:51:25;;;;;;;3.08;1.70;;;;;;;;;;10474177;28;20028;-82
2023/09/20 07:56:28;;;;;;;4.95;2.30;;;;;;;;;;10475537;28;20092;-81
2023/09/20 08:01:29;;;;;;;4.03;1.80;;;;;;;;;;10487020;28;20025;-84
2023/09/20 08:06:35;;;;;;;5.63;1.92;;;;;;;;;;10471584;28;20028;-81
2023/09/20 08:11:37;;;;;;;2.72;1.60;;;;;;;;;;10470583;28;20035;-81
2023/09/20 08:16:38;;;;;;;4.80;2.00;;;;;;;;;;10472303;28;20032;-82
2023/09/20 08:21:39;;;;;;;5.13;1.85;;;;;;;;;;10471729;28;20032;-83
2023/09/20 09:04:02;;;;;;;3.55;1.65;;;;;;;;;;10471718;28;20532;-81
2023/09/20 09:09:03;;;;;;;4.75;1.90;;;;;;;;;;10470837;28;20033;-82
2023/09/20 09:14:05;;;;;;;3.70;1.30;;;;;;;;;;10445316;28;20060;-82
2023/09/20 09:19:09;;;;;;;3.85;1.80;;;;;;;;;;10443329;28;20480;-81
2023/09/20 09:24:10;;;;;;;4.22;1.83;;;;;;;;;;10459642;28;20124;-80
2023/09/20 09:29:17;;;;;;;3.00;1.58;;;;;;;;;;10462739;28;20040;-83
2023/09/20 09:34:19;;;;;;;5.88;2.00;;;;;;;;;;10466687;28;20025;-81
2023/09/20 09:39:20;;;;;;;3.47;2.03;;;;;;;;;;10468507;28;20040;-82
2023/09/20 09:44:21;;;;;;;8.93;6.70;;;;;;;;;;10470369;28;20054;-82
2023/09/20 09:49:24;;;;;;;3.30;1.83;;;;;;;;;;10449473;28;20029;-81
2023/09/20 09:54:25;;;;;;;5.65;2.00;;;;;;;;;;10465326;28;20111;-82
2023/09/20 09:59:26;;;;;;;2.83;1.67;;;;;;;;;;10467597;28;20039;-82
2023/09/20 10:04:27;;;;;;;3.28;1.50;;;;;;;;;;10452873;28;20029;-82
2023/09/20 10:09:33;;;;;;;4.35;1.25;;;;;;;;;;10452581;28;20048;-83
2023/09/20 10:14:36;;;;;;;2.28;1.42;;;;;;;;;;10467729;28;20051;-81
2023/09/20 10:19:38;;;;;;;1.90;1.30;;;;;;;;;;10464882;28;20022;-82
2023/09/20 10:24:50;;;;;;;2.40;1.60;;;;;;;;;;10467650;28;20025;-82
2023/09/20 10:30:11;;;;;;;3.33;1.73;;;;;;;;;;10468270;28;20036;-81
2023/09/20 10:35:31;;;;;;;2.70;1.40;;;;;;;;;;10476993;28;20071;-82
2023/09/20 10:40:48;;;;;;;1.85;1.23;;;;;;;;;;10475573;28;20017;-82
2023/09/20 10:45:51;;;;;;;4.55;1.58;;;;;;;;;;10459174;28;20044;-83
2023/09/20 10:50:59;;;;;;;3.55;1.65;;;;;;;;;;10475223;28;20484;-83
2023/09/20 10:56:00;;;;;;;3.40;1.38;;;;;;;;;;10478859;28;20043;-83
2023/09/20 11:01:03;;;;;;;2.42;1.40;;;;;;;;;;10477042;28;20053;-82
2023/09/20 11:06:04;;;;;;;3.33;1.40;;;;;;;;;;10479402;28;20031;-85
2023/09/20 11:11:07;;;;;;;3.17;1.50;;;;;;;;;;10486615;28;20180;-84
2023/09/20 11:16:08;;;;;;;3.63;1.50;;;;;;;;;;10476582;28;20025;-83
2023/09/20 11:21:09;;;;;;;4.30;1.50;;;;;;;;;;10476272;28;20040;-83
2023/09/20 11:26:10;;;;;;;3.13;1.63;;;;;;;;;;10458294;28;20025;-82
2023/09/20 11:31:27;;;;;;;4.00;2.47;;;;;;;;;;10472910;28;20029;-83
2023/09/20 11:36:29;;;;;;;4.32;1.70;;;;;;;;;;10476105;28;20028;-84
2023/09/20 11:41:30;;;;;;;3.72;1.85;;;;;;;;;;10477452;28;20467;-84
2023/09/20 11:46:35;;;;;;;2.53;1.50;;;;;;;;;;10471049;28;20060;-83
2023/09/20 11:51:36;;;;;;;2.47;1.52;;;;;;;;;;10470606;28;20032;-84
2023/09/20 11:56:38;;;;;;;4.20;1.50;;;;;;;;;;10469857;28;20102;-83
2023/09/20 12:01:41;;;;;;;3.05;1.65;;;;;;;;;;10485700;22;20068;-77
2023/09/20 12:06:42;;;;;;;4.90;1.58;;;;;;;;;;10460650;28;20029;-77
2023/09/20 12:11:43;;;;;;;3.13;1.20;;;;;;;;;;10458764;28;20477;-77
2023/09/20 12:16:47;;;;;;;4.45;1.40;;;;;;;;;;10459826;28;20086;-78
2023/09/20 12:21:49;;;;;;;2.08;1.17;;;;;;;;;;10460754;28;20506;-78
2023/09/20 12:26:51;;;;;;;2.33;1.23;;;;;;;;;;10442469;28;20082;-77
2023/09/20 12:31:52;;;;;;;4.78;1.17;;;;;;;;;;10459611;28;20025;-77
2023/09/20 12:36:53;;;;;;;2.70;1.30;;;;;;;;;;10470071;28;20032;-79
2023/09/20 12:41:54;;;;;;;1.63;1.10;;;;;;;;;;10458762;28;20112;-77
2023/09/20 12:46:55;;;;;;;4.95;1.40;;;;;;;;;;10459348;28;20500;-77
2023/09/20 12:51:57;;;;;;;3.67;1.42;;;;;;;;;;10457738;28;20025;-77
2023/09/20 12:56:59;;;;;;;1.48;1.17;;;;;;;;;;10439649;28;20025;-77
2023/09/20 13:02:01;;;;;;;2.45;1.40;;;;;;;;;;10459714;28;20025;-79
2023/09/20 13:07:02;;;;;;;3.78;1.40;;;;;;;;;;10444334;28;20025;-77
2023/09/20 13:12:03;;;;;;;2.58;1.48;;;;;;;;;;10466600;28;20052;-78
2023/09/20 13:17:04;;;;;;;2.58;1.20;;;;;;;;;;10458542;28;20023;-79
2023/09/20 13:22:07;;;;;;;3.92;2.13;;;;;;;;;;10461916;28;20041;-78
2023/09/20 13:27:08;;;;;;;4.43;1.60;;;;;;;;;;10441879;28;20021;-77
2023/09/20 13:32:09;;;;;;;3.67;1.63;;;;;;;;;;10459191;28;20469;-77
2023/09/20 13:37:10;;;;;;;3.10;1.83;;;;;;;;;;10455717;28;20025;-79
2023/09/20 13:42:11;;;;;;;2.20;1.52;;;;;;;;;;10455017;28;20079;-77
2023/09/20 13:47:13;;;;;;;2.95;1.70;;;;;;;;;;10457359;28;20037;-78
2023/09/20 13:52:14;;;;;;;3.78;1.45;;;;;;;;;;10451194;28;20032;-78
2023/09/20 13:57:16;;;;;;;4.22;1.60;;;;;;;;;;10457562;28;20037;-77
2023/09/20 14:02:17;;;;;;;2.13;1.50;;;;;;;;;;10440036;28;20054;-78
2023/09/20 14:07:18;;;;;;;4.55;1.40;;;;;;;;;;10461920;28;20112;-78
2023/09/20 14:12:21;;;;;;;2.25;1.30;;;;;;;;;;10466448;28;20025;-78
2023/09/20 14:17:22;;;;;;;2.78;1.60;;;;;;;;;;10447462;28;20596;-77
2023/09/20 14:22:25;;;;;;;3.08;1.67;;;;;;;;;;10465488;28;20125;-77
2023/09/20 14:27:26;;;;;;;3.53;2.00;;;;;;;;;;10467122;28;20048;-80
2023/09/20 14:32:27;;;;;;;4.65;1.90;;;;;;;;;;10466405;28;20127;-79
2023/09/20 14:37:29;;;;;;;4.40;2.22;;;;;;;;;;10468603;28;20025;-80
2023/09/20 14:42:30;;;;;;;3.35;2.20;;;;;;;;;;10449568;28;20017;-79
2023/09/20 14:47:31;;;;;;;2.90;1.50;;;;;;;;;;10466663;28;20033;-80
2023/09/20 14:52:33;;;;;;;3.42;2.03;;;;;;;;;;10466000;28;20033;-82
2023/09/20 14:57:35;;;;;;;2.60;1.90;;;;;;;;;;10449984;28;20078;-81
2023/09/20 15:02:36;;;;;;;3.58;2.03;;;;;;;;;;10464086;28;20067;-82
2023/09/20 15:07:38;;;;;;;3.22;1.70;;;;;;;;;;10502161;28;20040;-83
2023/09/20 15:12:41;;;;;;;3.80;2.70;;;;;;;;;;10475290;28;20039;-83
2023/09/20 15:17:43;;;;;;;5.43;2.00;;;;;;;;;;10470506;28;20124;-84
2023/09/20 15:22:44;;;;;;;2.95;1.85;;;;;;;;;;10469472;28;20040;-83
2023/09/20 15:27:46;;;;;;;3.97;1.95;;;;;;;;;;10469046;28;20035;-84
2023/09/20 15:32:47;;;;;;;3.45;1.98;;;;;;;;;;10471402;28;20036;-84
2023/09/20 15:37:49;;;;;;;3.78;1.65;;;;;;;;;;10470392;28;20048;-85
2023/09/20 15:42:50;;;;;;;4.07;1.90;;;;;;;;;;10455618;28;20037;-82
2023/09/20 15:47:51;;;;;;;4.20;2.42;;;;;;;;;;10456272;28;20036;-83
2023/09/20 15:52:52;;;;;;;2.72;1.90;;;;;;;;;;10473463;28;20036;-82
2023/09/20 15:57:53;;;;;;;3.15;1.98;;;;;;;;;;10472779;28;20040;-83
2023/09/20 16:02:54;;;;;;;3.25;2.45;;;;;;;;;;10475768;28;20393;-83
2023/09/20 16:07:56;;;;;;;4.00;2.08;;;;;;;;;;10481064;28;20330;-82
2023/09/20 16:12:57;;;;;;;3.17;1.80;;;;;;;;;;10489632;28;20037;-85
2023/09/20 16:18:05;;;;;;;3.28;2.00;;;;;;;;;;10472309;28;20124;-84
2023/09/20 16:23:07;;;;;;;4.25;2.20;;;;;;;;;;10469000;28;20024;-86
2023/09/20 16:28:08;;;;;;;2.90;1.63;;;;;;;;;;10443092;28;20067;-87
2023/09/20 16:33:11;;;;;;;4.15;2.30;;;;;;;;;;10463688;28;20041;-85
2023/09/20 16:38:15;;;;;;;3.28;1.80;;;;;;;;;;10446749;28;20175;-86
2023/09/20 16:43:17;;;;;;;2.63;1.83;;;;;;;;;;10442821;28;20086;-87
2023/09/20 16:48:18;;;;;;;3.63;1.80;;;;;;;;;;10441932;28;20028;-87
2023/09/20 16:53:20;;;;;;;3.65;1.67;;;;;;;;;;10460380;28;20036;-87
2023/09/20 16:58:21;;;;;;;4.22;3.00;;;;;;;;;;10459787;28;20033;-87
2023/09/20 17:03:22;;;;;;;4.60;2.05;;;;;;;;;;10461622;28;20144;-87
2023/09/20 17:08:23;;;;;;;2.75;1.73;;;;;;;;;;10458375;28;20017;-87
2023/09/20 17:13:31;;;;;;;3.70;1.83;;;;;;;;;;10458397;28;20025;-86
2023/09/20 17:18:39;;;;;;;4.35;2.58;;;;;;;;;;10443085;28;20024;-86
2023/09/20 17:23:40;;;;;;;5.53;2.10;;;;;;;;;;10442181;28;20025;-87
2023/09/20 17:28:41;;;;;;;4.43;2.40;;;;;;;;;;10459044;28;20021;-87
2023/09/20 17:33:44;;;;;;;4.70;2.47;;;;;;;;;;10441850;28;20123;-87
2023/09/20 17:39:12;;;;;;;2.60;1.80;;;;;;;;;;10460801;28;20475;-87
2023/09/20 17:45:02;;;;;;;4.43;2.00;;;;;;;;;;10442232;28;20040;-86
2023/09/20 17:50:29;;;;;;;3.72;2.00;;;;;;;;;;10461866;28;20039;-83
2023/09/20 17:55:30;;;;;;;3.97;2.30;;;;;;;;;;10455153;28;20041;-83
2023/09/20 18:26:57;;;;;;;5.10;2.33;;;;;;;;;;10883416;22;20178;-88
2023/09/20 19:05:42;;;;;;;90.68;35.63;;;;;;;;;;10590267;22;20056;-87
2023/09/20 19:10:48;;;;;;;148.15;53.22;;;;;;;;;;10531506;28;20058;-86
